createdAt,value
2019-05-20T00:01:54.278Z,17.48
2019-05-20T00:04:22.866Z,17.10
2019-05-20T00:06:51.517Z,16.45
2019-05-20T00:09:20.177Z,17.85
2019-05-20T00:11:48.733Z,18.10
2019-05-20T00:14:17.338Z,17.30
2019-05-20T00:16:45.880Z,16.87
2019-05-20T00:19:14.480Z,15.70
2019-05-20T00:21:43.098Z,17.67
2019-05-20T00:24:11.713Z,16.45
2019-05-20T00:26:40.290Z,17.77
2019-05-20T00:29:08.904Z,15.53
2019-05-20T00:31:37.706Z,16.55
2019-05-20T00:34:06.282Z,16.52
2019-05-20T00:36:34.871Z,17.55
2019-05-20T00:39:21.563Z,17.80
2019-05-20T00:41:50.310Z,17.05
2019-05-20T00:44:19.128Z,17.90
2019-05-20T00:46:47.705Z,16.82
2019-05-20T00:49:16.283Z,17.35
2019-05-20T00:51:45.469Z,17.25
2019-05-20T00:54:14.264Z,17.85
2019-05-20T00:56:42.940Z,15.43
2019-05-20T00:59:11.547Z,18.57
2019-05-20T01:01:40.170Z,15.70
2019-05-20T01:04:08.739Z,14.87
2019-05-20T01:06:37.331Z,18.50
2019-05-20T01:09:07.835Z,17.80
2019-05-20T01:11:36.433Z,18.10
2019-05-20T01:14:05.420Z,21.73
2019-05-20T01:16:34.035Z,16.25
2019-05-20T01:19:02.551Z,16.50
2019-05-20T01:21:31.135Z,19.65
2019-05-20T01:23:59.718Z,18.35
2019-05-20T01:26:28.261Z,18.43
2019-05-20T01:28:56.853Z,16.75
2019-05-20T01:31:26.022Z,19.07
2019-05-20T01:33:54.615Z,16.87
2019-05-20T01:36:23.233Z,18.98
2019-05-20T01:38:51.762Z,20.27
2019-05-20T01:41:20.307Z,16.97
2019-05-20T01:43:48.778Z,21.30
2019-05-20T01:46:17.289Z,17.27
2019-05-20T01:48:45.901Z,18.60
2019-05-20T01:51:14.501Z,18.85
2019-05-20T01:53:43.054Z,17.70
2019-05-20T01:56:11.627Z,21.65
2019-05-20T01:58:40.262Z,17.32
2019-05-20T02:01:08.789Z,18.05
2019-05-20T02:03:37.529Z,17.10
2019-05-20T02:06:06.509Z,17.50
2019-05-20T02:08:35.072Z,18.05
2019-05-20T02:11:03.718Z,19.23
2019-05-20T02:13:50.167Z,20.30
2019-05-20T02:16:19.832Z,18.32
2019-05-20T02:18:48.395Z,18.12
2019-05-20T02:21:18.458Z,17.23
2019-05-20T02:23:47.029Z,22.87
2019-05-20T02:26:15.612Z,20.43
2019-05-20T02:28:46.166Z,19.10
2019-05-20T02:31:14.755Z,20.82
2019-05-20T02:33:51.701Z,17.60
2019-05-20T02:36:13.647Z,18.67
2019-05-20T02:38:42.478Z,19.20
2019-05-20T02:41:11.095Z,22.13
2019-05-20T02:43:41.047Z,20.92
2019-05-20T02:46:09.723Z,20.08
2019-05-20T02:48:38.271Z,18.35
2019-05-20T02:51:06.965Z,18.30
2019-05-20T02:53:35.443Z,22.02
2019-05-20T02:56:04.104Z,23.27
2019-05-20T02:58:32.683Z,17.65
2019-05-20T03:01:03.917Z,19.75
2019-05-20T03:03:32.477Z,18.10
2019-05-20T03:06:01.013Z,20.17
2019-05-20T03:08:31.186Z,20.20
2019-05-20T03:10:59.691Z,18.75
2019-05-20T03:13:28.194Z,19.40
2019-05-20T03:15:56.683Z,21.73
2019-05-20T03:18:25.233Z,19.15
2019-05-20T03:20:53.765Z,20.60
2019-05-20T03:23:22.349Z,18.37
2019-05-20T03:25:50.929Z,22.87
2019-05-20T03:28:20.778Z,18.82
2019-05-20T03:30:49.858Z,18.80
2019-05-20T03:33:18.434Z,21.65
2019-05-20T03:35:49.453Z,17.90
2019-05-20T03:38:18.103Z,25.65
2019-05-20T03:40:46.666Z,25.92
2019-05-20T03:43:15.822Z,17.80
2019-05-20T03:45:44.417Z,24.02
2019-05-20T03:48:15.219Z,20.05
2019-05-20T03:50:43.713Z,21.68
2019-05-20T03:53:12.249Z,19.60
2019-05-20T03:55:41.093Z,20.50
2019-05-20T03:58:13.398Z,20.90
2019-05-20T04:00:44.423Z,21.50
2019-05-20T04:03:14.089Z,18.80
2019-05-20T04:05:42.674Z,23.95
2019-05-20T04:08:11.349Z,20.75
2019-05-20T04:10:40.202Z,23.70
2019-05-20T04:13:08.771Z,24.35
2019-05-20T04:15:37.373Z,22.37
2019-05-20T04:18:05.944Z,21.33
2019-05-20T04:20:34.547Z,20.68
2019-05-20T04:23:03.143Z,23.38
2019-05-20T04:25:31.872Z,23.00
2019-05-20T04:28:00.477Z,23.50
2019-05-20T04:30:29.047Z,21.12
2019-05-20T04:32:57.654Z,20.52
2019-05-20T04:35:26.217Z,21.15
2019-05-20T04:37:54.811Z,25.27
2019-05-20T04:40:23.408Z,23.75
2019-05-20T04:42:52.006Z,22.37
2019-05-20T04:45:20.624Z,22.10
2019-05-20T04:47:49.165Z,23.65
2019-05-20T04:50:18.683Z,24.73
2019-05-20T04:52:47.282Z,24.55
2019-05-20T04:55:15.851Z,23.02
2019-05-20T04:57:45.976Z,24.87
2019-05-20T05:00:16.709Z,22.27
2019-05-20T05:02:45.526Z,21.42
2019-05-20T05:05:14.349Z,24.10
2019-05-20T05:07:45.425Z,22.15
2019-05-20T05:10:14.970Z,22.60
2019-05-20T05:12:43.550Z,22.50
2019-05-20T05:15:15.009Z,25.48
2019-05-20T05:17:43.503Z,21.62
2019-05-20T05:20:17.866Z,27.70
2019-05-20T05:22:43.510Z,24.95
2019-05-20T05:25:13.085Z,22.70
2019-05-20T05:27:41.629Z,21.80
2019-05-20T05:30:12.559Z,25.77
2019-05-20T05:32:41.441Z,23.55
2019-05-20T05:35:11.799Z,23.70
2019-05-20T05:37:40.264Z,25.20
2019-05-20T05:40:10.044Z,24.92
2019-05-20T05:42:39.655Z,25.25
2019-05-20T05:45:08.651Z,24.25
2019-05-20T05:47:37.720Z,22.85
2019-05-20T05:50:08.464Z,23.92
2019-05-20T05:52:39.063Z,24.87
2019-05-20T05:55:07.938Z,21.12
2019-05-20T05:57:41.122Z,28.40
2019-05-20T06:00:11.972Z,32.95
2019-05-20T06:02:41.025Z,23.70
2019-05-20T06:05:09.514Z,36.13
2019-05-20T06:07:37.983Z,25.05
2019-05-20T06:10:08.152Z,24.18
2019-05-20T06:12:36.698Z,25.95
2019-05-20T06:15:09.274Z,25.80
2019-05-20T06:17:37.974Z,24.87
2019-05-20T06:20:07.107Z,24.25
2019-05-20T06:22:37.279Z,22.80
2019-05-20T06:25:06.108Z,22.13
2019-05-20T06:27:34.699Z,28.95
2019-05-20T06:30:04.817Z,20.27
2019-05-20T06:32:35.053Z,22.52
2019-05-20T06:35:05.258Z,21.15
2019-05-20T06:37:35.467Z,28.23
2019-05-20T06:40:08.057Z,24.15
2019-05-20T06:42:36.644Z,26.17
2019-05-20T06:45:09.150Z,23.45
2019-05-20T06:47:38.553Z,23.53
2019-05-20T06:50:10.448Z,24.02
2019-05-20T06:52:38.984Z,26.90
2019-05-20T06:55:09.655Z,25.75
2019-05-20T06:57:38.177Z,23.35
2019-05-20T07:00:11.577Z,23.22
2019-05-20T07:02:42.188Z,25.57
2019-05-20T07:05:14.264Z,22.22
2019-05-20T07:07:42.830Z,24.35
2019-05-20T07:10:12.554Z,21.05
2019-05-20T07:12:41.958Z,26.45
2019-05-20T07:15:11.289Z,25.02
2019-05-20T07:17:39.879Z,26.73
2019-05-20T07:20:09.145Z,17.55
2019-05-20T07:22:54.665Z,26.52
2019-05-20T07:25:10.185Z,24.43
2019-05-20T07:27:38.718Z,21.00
2019-05-20T07:30:07.698Z,19.23
2019-05-20T07:32:36.246Z,21.25
2019-05-20T07:35:09.626Z,19.23
2019-05-20T07:37:39.506Z,23.25
2019-05-20T07:40:08.457Z,19.65
2019-05-20T07:42:37.244Z,20.30
2019-05-20T07:45:10.297Z,22.73
2019-05-20T07:47:40.389Z,20.77
2019-05-20T07:50:14.882Z,21.40
2019-05-20T07:52:43.561Z,21.57
2019-05-20T07:55:12.243Z,18.70
2019-05-20T07:57:43.758Z,20.85
2019-05-20T08:00:13.204Z,20.57
2019-05-20T08:02:43.193Z,18.60
2019-05-20T08:05:13.192Z,21.65
2019-05-20T08:07:51.980Z,21.75
2019-05-20T08:10:12.133Z,21.90
2019-05-20T08:12:41.203Z,21.80
2019-05-20T08:15:10.135Z,17.50
2019-05-20T08:17:38.693Z,21.23
2019-05-20T08:20:09.063Z,18.35
2019-05-20T08:22:37.658Z,22.32
2019-05-20T08:25:08.357Z,18.90
2019-05-20T08:27:36.851Z,20.10
2019-05-20T08:30:08.292Z,19.93
2019-05-20T08:32:38.398Z,20.17
2019-05-20T08:35:07.617Z,19.42
2019-05-20T08:37:45.485Z,20.85
2019-05-20T08:40:06.642Z,16.23
2019-05-20T08:42:35.211Z,23.52
2019-05-20T08:45:05.867Z,16.95
2019-05-20T08:47:34.489Z,19.32
2019-05-20T08:50:06.476Z,15.68
2019-05-20T08:52:34.719Z,18.73
2019-05-20T08:55:03.373Z,17.48
2019-05-20T08:57:32.024Z,14.57
2019-05-20T09:00:02.095Z,16.20
2019-05-20T09:02:32.207Z,16.77
2019-05-20T09:05:00.770Z,17.70
2019-05-20T09:07:34.911Z,16.07
2019-05-20T09:10:04.182Z,18.97
2019-05-20T09:12:35.977Z,18.65
2019-05-20T09:15:08.328Z,28.32
2019-05-20T09:17:39.211Z,18.48
2019-05-20T09:20:09.099Z,15.15
2019-05-20T09:22:39.266Z,19.90
2019-05-20T09:25:11.086Z,18.12
2019-05-20T09:27:41.055Z,16.25
2019-05-20T09:30:12.182Z,17.05
2019-05-20T09:32:43.053Z,15.45
2019-05-20T09:35:11.615Z,18.52
2019-05-20T09:37:40.211Z,16.35
2019-05-20T09:40:09.325Z,20.40
2019-05-20T09:42:40.820Z,16.32
2019-05-20T09:45:09.458Z,15.75
2019-05-20T09:47:43.044Z,17.15
2019-05-20T09:50:12.386Z,15.98
2019-05-20T09:52:42.235Z,16.50
2019-05-20T09:55:12.308Z,15.10
2019-05-20T09:57:40.898Z,40.98
2019-05-20T10:00:10.404Z,15.55
2019-05-20T10:02:39.086Z,18.35
2019-05-20T10:05:08.598Z,18.62
2019-05-20T10:07:38.148Z,17.30
2019-05-20T10:10:08.459Z,18.32
2019-05-20T10:12:46.012Z,18.90
2019-05-20T10:15:09.973Z,18.57
2019-05-20T10:17:38.581Z,19.57
2019-05-20T10:20:08.123Z,18.80
2019-05-20T10:22:38.620Z,21.90
2019-05-20T10:25:08.110Z,27.45
2019-05-20T10:27:37.959Z,24.47
2019-05-20T10:30:08.296Z,20.27
2019-05-20T10:32:40.791Z,24.57
2019-05-20T10:35:10.203Z,22.48
2019-05-20T10:37:38.842Z,23.55
2019-05-20T10:40:08.284Z,24.72
2019-05-20T10:42:36.864Z,23.22
2019-05-20T10:45:08.269Z,24.12
2019-05-20T10:47:38.220Z,22.05
2019-05-20T10:50:09.233Z,22.45
2019-05-20T10:52:38.355Z,23.27
2019-05-20T10:55:09.893Z,22.07
2019-05-20T10:57:38.542Z,23.15
2019-05-20T11:00:09.718Z,23.32
2019-05-20T11:02:38.373Z,19.67
2019-05-20T11:05:07.260Z,16.02
2019-05-20T11:07:35.924Z,19.80
2019-05-20T11:10:06.645Z,20.77
2019-05-20T11:12:37.538Z,19.20
2019-05-20T11:15:09.154Z,15.00
2019-05-20T11:17:40.092Z,15.78
2019-05-20T11:20:09.107Z,75.97
2019-05-20T11:22:41.769Z,14.68
2019-05-20T11:25:11.018Z,15.48
2019-05-20T11:27:42.053Z,15.78
2019-05-20T11:30:12.575Z,19.77
2019-05-20T11:32:41.246Z,21.17
2019-05-20T11:35:13.305Z,18.32
2019-05-20T11:37:43.115Z,13.65
2019-05-20T11:40:13.510Z,13.65
2019-05-20T11:42:44.116Z,15.50
2019-05-20T11:45:17.324Z,10.65
2019-05-20T11:47:45.933Z,12.75
2019-05-20T11:50:15.662Z,12.50
2019-05-20T11:52:44.274Z,10.30
2019-05-20T11:55:13.349Z,12.90
2019-05-20T11:57:41.958Z,11.80
2019-05-20T12:00:11.608Z,18.57
2019-05-20T12:02:41.148Z,15.83
2019-05-20T12:05:12.416Z,12.25
2019-05-20T12:07:42.034Z,10.43
2019-05-20T12:10:10.902Z,11.15
2019-05-20T12:12:45.422Z,8.83
2019-05-20T12:15:13.985Z,13.98
2019-05-20T12:17:42.539Z,9.68
2019-05-20T12:20:12.814Z,17.27
2019-05-20T12:22:41.836Z,11.57
2019-05-20T12:25:10.442Z,8.15
2019-05-20T12:27:39.379Z,12.07
2019-05-20T12:30:10.524Z,11.15
2019-05-20T12:32:40.619Z,7.83
2019-05-20T12:35:09.995Z,9.20
2019-05-20T12:37:45.538Z,6.65
2019-05-20T12:40:13.146Z,6.12
2019-05-20T12:42:41.725Z,8.98
2019-05-20T12:45:10.706Z,6.25
2019-05-20T12:47:40.891Z,12.85
2019-05-20T12:50:10.840Z,10.60
2019-05-20T12:52:39.390Z,9.75
2019-05-20T12:55:09.788Z,19.62
2019-05-20T12:57:39.556Z,8.80
2019-05-20T13:00:12.893Z,10.58
2019-05-20T13:02:42.660Z,14.13
2019-05-20T13:05:12.129Z,8.75
2019-05-20T13:07:43.880Z,44.30
2019-05-20T13:10:29.130Z,8.43
2019-05-20T13:12:48.248Z,15.03
2019-05-20T13:15:18.595Z,15.53
2019-05-20T13:17:47.485Z,15.55
2019-05-20T13:20:17.707Z,8.60
2019-05-20T13:22:48.142Z,17.32
2019-05-20T13:25:18.608Z,10.35
2019-05-20T13:27:47.235Z,10.20
2019-05-20T13:30:16.397Z,10.40
2019-05-20T13:32:46.675Z,83.80
2019-05-20T13:35:15.428Z,61.60
2019-05-20T13:37:45.722Z,11.22
2019-05-20T13:40:16.288Z,10.48
2019-05-20T13:42:45.855Z,12.53
2019-05-20T13:45:14.487Z,8.65
2019-05-20T13:47:44.029Z,10.10
2019-05-20T13:50:14.119Z,12.70
2019-05-20T13:52:42.737Z,7.60
2019-05-20T13:55:13.038Z,8.75
2019-05-20T13:57:42.063Z,8.73
2019-05-20T14:00:13.541Z,9.08
2019-05-20T14:02:43.670Z,9.88
2019-05-20T14:05:17.193Z,15.35
2019-05-20T14:07:45.798Z,10.93
2019-05-20T14:10:14.999Z,7.55
2019-05-20T14:12:45.835Z,8.53
2019-05-20T14:15:17.920Z,10.30
2019-05-20T14:17:48.945Z,10.32
2019-05-20T14:20:18.111Z,20.55
2019-05-20T14:22:47.025Z,7.97
2019-05-20T14:25:17.043Z,9.78
2019-05-20T14:27:45.936Z,8.58
2019-05-20T14:30:19.051Z,10.63
2019-05-20T14:32:49.161Z,8.58
2019-05-20T14:35:17.678Z,7.78
2019-05-20T14:37:46.966Z,11.22
2019-05-20T14:40:17.363Z,11.18
2019-05-20T14:42:46.249Z,10.28
2019-05-20T14:45:14.905Z,14.15
2019-05-20T14:47:44.301Z,9.43
2019-05-20T14:50:14.596Z,12.18
2019-05-20T14:52:45.000Z,14.43
2019-05-20T14:55:13.871Z,10.85
2019-05-20T14:57:43.767Z,8.88
2019-05-20T15:00:13.988Z,8.15
2019-05-20T15:02:43.295Z,10.30
2019-05-20T15:05:11.977Z,13.05
2019-05-20T15:07:40.494Z,11.33
2019-05-20T15:10:11.167Z,11.50
2019-05-20T15:12:43.433Z,9.00
2019-05-20T15:15:12.357Z,13.50
2019-05-20T15:17:41.290Z,10.05
2019-05-20T15:20:10.320Z,9.30
2019-05-20T15:22:38.838Z,8.20
2019-05-20T15:25:09.220Z,10.53
2019-05-20T15:27:39.973Z,11.40
2019-05-20T15:30:10.535Z,10.85
2019-05-20T15:32:40.598Z,14.07
2019-05-20T15:35:09.435Z,11.50
2019-05-20T15:37:41.071Z,8.23
2019-05-20T15:40:09.864Z,11.25
2019-05-20T15:42:38.445Z,11.10
2019-05-20T15:45:08.854Z,9.95
2019-05-20T15:47:38.169Z,10.82
2019-05-20T15:50:09.997Z,9.83
2019-05-20T15:52:38.289Z,8.20
2019-05-20T15:55:06.835Z,9.65
2019-05-20T15:57:35.999Z,10.10
2019-05-20T16:00:10.351Z,8.80
2019-05-20T16:02:40.530Z,11.63
2019-05-20T16:05:09.505Z,11.20
2019-05-20T16:07:39.012Z,13.30
2019-05-20T16:10:08.497Z,12.47
2019-05-20T16:12:37.837Z,17.82
2019-05-20T16:15:08.187Z,12.50
2019-05-20T16:17:36.783Z,9.18
2019-05-20T16:20:08.816Z,16.77
2019-05-20T16:22:38.416Z,26.65
2019-05-20T16:25:09.336Z,12.90
2019-05-20T16:27:37.854Z,10.80
2019-05-20T16:30:09.041Z,13.93
2019-05-20T16:32:37.678Z,12.00
2019-05-20T16:35:07.368Z,10.40
2019-05-20T16:37:37.482Z,12.20
2019-05-20T16:40:07.810Z,9.28
2019-05-20T16:42:36.601Z,15.55
2019-05-20T16:45:11.726Z,13.20
2019-05-20T16:47:39.484Z,14.10
2019-05-20T16:50:10.209Z,12.15
2019-05-20T16:52:39.031Z,13.45
2019-05-20T16:55:07.829Z,14.15
2019-05-20T16:57:37.204Z,11.40
2019-05-20T17:00:27.437Z,10.55
2019-05-20T17:02:37.724Z,12.30
2019-05-20T17:05:09.341Z,15.00
2019-05-20T17:07:40.493Z,14.07
2019-05-20T17:10:09.431Z,12.30
2019-05-20T17:12:40.039Z,12.50
2019-05-20T17:15:09.219Z,11.85
2019-05-20T17:17:37.841Z,13.80
2019-05-20T17:20:07.156Z,16.32
2019-05-20T17:22:37.062Z,16.45
2019-05-20T17:25:07.241Z,11.38
2019-05-20T17:27:36.074Z,13.13
2019-05-20T17:30:12.333Z,9.63
2019-05-20T17:32:40.591Z,5.25
2019-05-20T17:35:09.518Z,6.35
2019-05-20T17:37:38.364Z,7.40
2019-05-20T17:40:07.920Z,5.35
2019-05-20T17:42:37.094Z,8.50
2019-05-20T17:45:11.952Z,8.55
2019-05-20T17:47:40.508Z,5.45
2019-05-20T17:50:10.971Z,5.70
2019-05-20T17:52:39.554Z,6.65
2019-05-20T17:55:09.670Z,8.18
2019-05-20T17:57:38.612Z,7.00
2019-05-20T18:00:10.895Z,7.13
2019-05-20T18:02:39.555Z,7.83
2019-05-20T18:05:08.512Z,4.65
2019-05-20T18:07:39.074Z,6.05
2019-05-20T18:10:08.961Z,6.80
2019-05-20T18:12:37.542Z,5.78
2019-05-20T18:15:09.476Z,6.53
2019-05-20T18:17:39.524Z,6.20
2019-05-20T18:20:11.240Z,5.00
2019-05-20T18:22:40.097Z,6.85
2019-05-20T18:25:10.416Z,7.37
2019-05-20T18:27:43.486Z,7.22
2019-05-20T18:30:13.030Z,7.58
2019-05-20T18:32:42.844Z,5.92
2019-05-20T18:35:11.801Z,7.60
2019-05-20T18:37:44.676Z,5.55
2019-05-20T18:40:14.986Z,7.95
2019-05-20T18:42:43.741Z,7.10
2019-05-20T18:45:14.636Z,4.72
2019-05-20T18:47:43.171Z,6.93
2019-05-20T18:50:14.063Z,10.88
2019-05-20T18:52:44.429Z,8.95
2019-05-20T18:55:13.081Z,11.57
2019-05-20T18:57:43.237Z,10.05
2019-05-20T19:00:12.415Z,7.95
2019-05-20T19:02:42.192Z,5.47
2019-05-20T19:05:13.567Z,7.00
2019-05-20T19:07:42.209Z,7.27
2019-05-20T19:10:11.072Z,7.25
2019-05-20T19:12:42.985Z,10.03
2019-05-20T19:15:12.412Z,10.88
2019-05-20T19:17:41.034Z,8.68
2019-05-20T19:20:09.852Z,6.58
2019-05-20T19:22:39.965Z,6.90
2019-05-20T19:25:09.757Z,10.70
2019-05-20T19:27:38.338Z,10.63
2019-05-20T19:30:08.267Z,12.18
2019-05-20T19:32:36.817Z,8.90
2019-05-20T19:35:07.108Z,13.62
2019-05-20T19:37:38.273Z,13.08
2019-05-20T19:40:09.057Z,11.17
2019-05-20T19:42:37.809Z,12.75
2019-05-20T19:45:06.896Z,15.03
2019-05-20T19:47:35.461Z,12.70
2019-05-20T19:50:06.381Z,12.35
2019-05-20T19:52:36.251Z,16.75
2019-05-20T19:55:06.189Z,11.97
2019-05-20T19:57:35.954Z,12.75
2019-05-20T20:00:09.210Z,13.83
2019-05-20T20:02:37.804Z,13.18
2019-05-20T20:05:08.085Z,14.90
2019-05-20T20:07:36.919Z,13.03
2019-05-20T20:10:07.133Z,12.80
2019-05-20T20:12:37.321Z,13.32
2019-05-20T20:15:09.575Z,14.00
2019-05-20T20:17:39.928Z,16.80
2019-05-20T20:20:10.474Z,16.97
2019-05-20T20:22:39.077Z,15.53
2019-05-20T20:25:07.877Z,18.60
2019-05-20T20:27:37.287Z,19.70
2019-05-20T20:30:06.640Z,18.45
2019-05-20T20:32:38.277Z,19.57
2019-05-20T20:35:08.040Z,22.35
2019-05-20T20:37:36.605Z,24.15
2019-05-20T20:40:05.606Z,23.02
2019-05-20T20:42:34.121Z,21.65
2019-05-20T20:45:02.635Z,28.98
2019-05-20T20:47:41.293Z,23.18
2019-05-20T20:50:04.741Z,24.20
2019-05-20T20:52:33.299Z,22.95
2019-05-20T20:55:03.206Z,27.00
2019-05-20T20:57:31.777Z,26.70
2019-05-20T21:00:00.271Z,24.18
2019-05-20T21:02:28.822Z,25.25
2019-05-20T21:04:57.650Z,25.05
2019-05-20T21:07:26.193Z,23.52
2019-05-20T21:09:54.789Z,25.43
2019-05-20T21:12:26.044Z,25.70
2019-05-20T21:14:54.654Z,24.65
2019-05-20T21:17:23.460Z,24.60
2019-05-20T21:19:53.101Z,25.55
2019-05-20T21:22:21.712Z,25.15
2019-05-20T21:24:50.277Z,25.48
2019-05-20T21:27:21.073Z,29.55
2019-05-20T21:29:49.656Z,21.25
2019-05-20T21:32:18.204Z,24.75
2019-05-20T21:34:46.787Z,25.97
2019-05-20T21:37:15.279Z,25.90
2019-05-20T21:39:43.878Z,29.00
2019-05-20T21:42:12.447Z,25.45
2019-05-20T21:44:41.025Z,30.10
2019-05-20T21:47:09.637Z,30.50
2019-05-20T21:49:38.193Z,30.43
2019-05-20T21:52:06.741Z,27.25
2019-05-20T21:54:35.325Z,32.00
2019-05-20T21:57:03.914Z,26.17
2019-05-20T21:59:33.721Z,26.97
2019-05-20T22:02:02.583Z,28.12
2019-05-20T22:04:31.161Z,28.07
2019-05-20T22:07:01.338Z,28.35
2019-05-20T22:09:29.926Z,27.27
2019-05-20T22:11:58.486Z,31.60
2019-05-20T22:14:27.067Z,26.48
2019-05-20T22:16:55.661Z,28.52
2019-05-20T22:19:24.241Z,28.47
2019-05-20T22:22:03.388Z,26.45
2019-05-20T22:24:31.982Z,26.00
2019-05-20T22:27:00.535Z,28.65
2019-05-20T22:29:29.034Z,36.05
2019-05-20T22:31:57.605Z,30.77
2019-05-20T22:34:26.119Z,25.10
2019-05-20T22:36:54.682Z,33.00
2019-05-20T22:39:23.250Z,30.05
2019-05-20T22:41:51.861Z,31.52
2019-05-20T22:44:20.421Z,26.85
2019-05-20T22:46:48.996Z,29.10
2019-05-20T22:49:17.611Z,26.62
2019-05-20T22:51:46.184Z,29.27
2019-05-20T22:54:14.849Z,30.65
2019-05-20T22:56:43.411Z,26.93
2019-05-20T22:59:11.992Z,31.15
2019-05-20T23:01:40.547Z,32.05
2019-05-20T23:04:09.134Z,30.90
2019-05-20T23:06:37.711Z,30.05
2019-05-20T23:09:06.626Z,28.60
2019-05-20T23:11:36.959Z,30.55
2019-05-20T23:14:05.507Z,31.65
2019-05-20T23:16:35.315Z,32.93
2019-05-20T23:19:04.878Z,29.92
2019-05-20T23:21:33.441Z,30.50
2019-05-20T23:24:02.003Z,31.05
2019-05-20T23:26:30.587Z,33.75
2019-05-20T23:28:59.187Z,31.93
2019-05-20T23:31:27.740Z,32.53
2019-05-20T23:34:10.335Z,32.30
2019-05-20T23:36:28.844Z,30.60
2019-05-20T23:38:57.323Z,35.73
2019-05-20T23:41:25.917Z,30.90
2019-05-20T23:43:54.478Z,35.10
2019-05-20T23:46:23.100Z,35.98
2019-05-20T23:48:51.698Z,33.98
2019-05-20T23:51:20.257Z,33.15
2019-05-20T23:53:48.861Z,33.88
2019-05-20T23:56:17.461Z,41.18
2019-05-20T23:58:46.033Z,35.20
